createdAt,value
2022-09-25T00:02:23.483Z,35.55
2022-09-25T00:04:53.750Z,59.60
2022-09-25T00:07:22.905Z,41.83
2022-09-25T00:09:50.051Z,30.30
2022-09-25T00:12:20.020Z,30.33
2022-09-25T00:14:50.623Z,30.45
2022-09-25T00:17:17.973Z,33.95
2022-09-25T00:19:51.883Z,34.47
2022-09-25T00:22:26.644Z,32.13
2022-09-25T00:24:54.909Z,28.23
2022-09-25T00:27:23.096Z,30.55
2022-09-25T00:29:56.323Z,30.73
2022-09-25T00:32:26.648Z,27.95
2022-09-25T00:34:59.870Z,26.00
2022-09-25T00:37:29.043Z,32.35
2022-09-25T00:39:57.365Z,31.73
2022-09-25T00:42:25.916Z,30.23
2022-09-25T00:45:07.094Z,27.67
2022-09-25T00:47:52.563Z,32.88
2022-09-25T00:50:36.838Z,31.23
2022-09-25T00:53:13.388Z,29.30
2022-09-25T00:55:44.513Z,32.40
2022-09-25T00:58:18.049Z,33.53
2022-09-25T01:00:45.880Z,32.13
2022-09-25T01:03:14.707Z,38.17
2022-09-25T01:05:49.844Z,28.80
2022-09-25T01:08:24.400Z,30.90
2022-09-25T01:10:52.566Z,32.45
2022-09-25T01:13:20.699Z,29.02
2022-09-25T01:16:00.311Z,34.42
2022-09-25T01:19:06.278Z,29.35
2022-09-25T01:21:46.484Z,28.95
2022-09-25T01:24:29.624Z,35.88
2022-09-25T01:27:25.549Z,42.03
2022-09-25T01:30:10.880Z,28.40
2022-09-25T01:33:08.227Z,33.28
2022-09-25T01:36:02.204Z,46.42
2022-09-25T01:38:47.545Z,40.40
2022-09-25T01:41:57.789Z,31.50
2022-09-25T01:44:31.707Z,46.28
2022-09-25T01:47:07.177Z,28.45
2022-09-25T01:49:45.019Z,29.00
2022-09-25T01:52:26.260Z,27.95
2022-09-25T01:55:05.326Z,27.35
2022-09-25T01:57:51.929Z,34.75
2022-09-25T02:00:22.211Z,27.55
2022-09-25T02:02:57.782Z,28.73
2022-09-25T02:05:39.864Z,26.83
2022-09-25T02:08:18.146Z,31.67
2022-09-25T02:10:51.683Z,31.65
2022-09-25T02:13:29.985Z,65.15
2022-09-25T02:16:01.182Z,28.10
2022-09-25T02:19:03.162Z,29.63
2022-09-25T02:21:47.044Z,45.28
2022-09-25T02:26:47.401Z,34.25
2022-09-25T02:29:23.640Z,35.00
2022-09-25T02:31:53.984Z,33.80
2022-09-25T02:34:22.099Z,32.95
2022-09-25T02:36:49.583Z,30.63
2022-09-25T02:39:21.324Z,29.13
2022-09-25T02:42:12.809Z,27.27
2022-09-25T02:45:11.776Z,29.42
2022-09-25T02:48:08.973Z,32.40
2022-09-25T02:50:57.154Z,26.10
2022-09-25T02:53:33.029Z,29.20
2022-09-25T02:56:06.851Z,26.77
2022-09-25T02:58:51.301Z,30.38
2022-09-25T03:01:23.552Z,27.88
2022-09-25T03:03:54.130Z,30.13
2022-09-25T03:06:24.798Z,28.58
2022-09-25T03:08:57.037Z,32.63
2022-09-25T03:11:30.417Z,29.75
2022-09-25T03:14:01.732Z,30.45
2022-09-25T03:16:47.314Z,32.05
2022-09-25T03:19:21.737Z,34.10
2022-09-25T03:21:49.245Z,34.67
2022-09-25T03:24:22.970Z,32.33
2022-09-25T03:29:23.995Z,32.25
2022-09-25T03:31:54.232Z,29.30
2022-09-25T03:34:23.122Z,32.15
2022-09-25T03:36:50.188Z,32.10
2022-09-25T03:39:19.846Z,31.85
2022-09-25T03:41:48.155Z,54.97
2022-09-25T03:44:15.492Z,34.83
2022-09-25T03:46:44.568Z,34.58
2022-09-25T03:49:14.135Z,67.60
2022-09-25T03:51:42.357Z,42.25
2022-09-25T03:54:10.423Z,31.48
2022-09-25T03:56:38.666Z,32.10
2022-09-25T03:59:05.821Z,28.75
2022-09-25T04:01:34.977Z,30.45
2022-09-25T04:04:03.567Z,27.88
2022-09-25T04:06:32.827Z,28.67
2022-09-25T04:09:00.985Z,32.97
2022-09-25T04:11:28.613Z,28.33
2022-09-25T04:13:57.325Z,29.65
2022-09-25T04:16:28.186Z,32.13
2022-09-25T04:18:55.810Z,27.98
2022-09-25T04:21:24.864Z,28.05
2022-09-25T04:24:15.247Z,34.28
2022-09-25T04:26:44.973Z,31.83
2022-09-25T04:29:18.748Z,30.15
2022-09-25T04:32:05.901Z,29.73
2022-09-25T04:34:35.262Z,32.53
2022-09-25T04:37:04.437Z,39.67
2022-09-25T04:39:31.463Z,41.05
2022-09-25T04:42:05.462Z,36.78
2022-09-25T04:44:34.482Z,35.03
2022-09-25T04:47:01.513Z,33.92
2022-09-25T04:49:31.730Z,35.65
2022-09-25T04:52:02.088Z,37.00
2022-09-25T04:54:31.899Z,39.22
2022-09-25T04:56:59.940Z,37.70
2022-09-25T04:59:27.127Z,36.85
2022-09-25T05:01:55.232Z,35.58
2022-09-25T05:04:24.587Z,36.28
2022-09-25T05:06:56.625Z,39.90
2022-09-25T05:09:28.723Z,36.40
2022-09-25T05:11:55.708Z,36.90
2022-09-25T05:14:26.193Z,35.70
2022-09-25T05:16:54.201Z,39.83
2022-09-25T05:19:23.243Z,35.95
2022-09-25T05:21:53.306Z,41.00
2022-09-25T05:24:21.339Z,39.63
2022-09-25T05:26:49.543Z,36.63
2022-09-25T05:29:16.529Z,39.53
2022-09-25T05:31:47.092Z,34.75
2022-09-25T05:34:19.915Z,34.33
2022-09-25T05:36:46.920Z,38.23
2022-09-25T05:39:14.764Z,39.03
2022-09-25T05:41:44.034Z,36.60
2022-09-25T05:44:12.412Z,42.17
2022-09-25T05:46:40.698Z,44.13
2022-09-25T05:49:09.003Z,43.85
2022-09-25T05:51:37.021Z,47.75
2022-09-25T05:54:06.110Z,45.78
2022-09-25T05:56:45.241Z,51.53
2022-09-25T05:59:12.389Z,49.78
2022-09-25T06:01:41.652Z,44.72
2022-09-25T06:04:10.463Z,49.42
2022-09-25T06:06:40.022Z,46.38
2022-09-25T06:09:07.070Z,53.40
2022-09-25T06:11:47.619Z,48.97
2022-09-25T06:14:17.993Z,50.92
2022-09-25T06:16:47.948Z,54.60
2022-09-25T06:19:14.902Z,59.60
2022-09-25T06:21:42.134Z,60.22
2022-09-25T06:24:12.509Z,65.00
2022-09-25T06:26:41.140Z,64.28
2022-09-25T06:29:08.164Z,63.78
2022-09-25T06:31:35.558Z,61.65
2022-09-25T06:34:02.671Z,67.78
2022-09-25T06:36:29.816Z,62.40
2022-09-25T06:38:56.819Z,64.20
2022-09-25T06:41:25.944Z,63.35
2022-09-25T06:43:58.014Z,64.45
2022-09-25T06:46:26.069Z,64.10
2022-09-25T06:48:55.796Z,64.90
2022-09-25T06:51:25.335Z,59.45
2022-09-25T06:53:56.064Z,54.80
2022-09-25T06:56:50.421Z,91.32
2022-09-25T07:01:48.590Z,66.20
2022-09-25T07:04:23.046Z,55.22
2022-09-25T07:06:58.804Z,51.78
2022-09-25T07:09:31.687Z,56.70
2022-09-25T07:12:00.032Z,59.38
2022-09-25T07:14:34.039Z,57.63
2022-09-25T07:17:01.082Z,56.47
2022-09-25T07:19:28.479Z,55.30
2022-09-25T07:21:57.441Z,55.35
2022-09-25T07:24:26.583Z,56.88
2022-09-25T07:26:53.689Z,53.42
2022-09-25T07:29:20.848Z,53.47
2022-09-25T07:31:54.300Z,49.78
2022-09-25T07:34:22.378Z,42.95
2022-09-25T07:36:53.121Z,41.95
2022-09-25T07:39:20.194Z,41.05
2022-09-25T07:41:59.817Z,39.30
2022-09-25T07:44:29.468Z,40.85
2022-09-25T07:49:33.119Z,35.65
2022-09-25T07:52:00.816Z,33.90
2022-09-25T07:54:31.423Z,32.75
2022-09-25T07:57:05.418Z,33.25
2022-09-25T07:59:32.663Z,58.97
2022-09-25T08:02:01.016Z,34.97
2022-09-25T08:04:33.868Z,34.05
2022-09-25T08:07:01.220Z,27.70
2022-09-25T08:09:28.334Z,31.20
2022-09-25T08:12:02.917Z,27.67
2022-09-25T08:14:30.124Z,24.90
2022-09-25T08:17:02.937Z,28.70
2022-09-25T08:19:30.180Z,34.90
2022-09-25T08:22:27.240Z,30.05
2022-09-25T08:24:54.365Z,19.20
2022-09-25T08:27:41.179Z,21.77
2022-09-25T08:30:12.352Z,23.15
2022-09-25T08:32:41.386Z,21.10
2022-09-25T08:35:15.056Z,21.60
2022-09-25T08:37:43.991Z,19.75
2022-09-25T08:40:19.145Z,20.98
2022-09-25T08:42:51.520Z,20.30
2022-09-25T08:45:45.157Z,19.27
2022-09-25T08:48:41.156Z,19.27
2022-09-25T08:51:10.060Z,21.20
2022-09-25T08:53:39.272Z,19.45
2022-09-25T08:56:20.517Z,23.58
2022-09-25T08:59:23.513Z,17.73
2022-09-25T09:01:56.970Z,19.75
2022-09-25T09:04:38.762Z,19.27
2022-09-25T09:07:27.884Z,20.50
2022-09-25T09:10:09.480Z,21.23
2022-09-25T09:12:43.227Z,21.83
2022-09-25T09:17:43.868Z,13.93
2022-09-25T09:20:34.810Z,13.55
2022-09-25T09:23:02.901Z,14.85
2022-09-25T09:26:06.861Z,14.63
2022-09-25T09:28:39.726Z,11.95
2022-09-25T09:31:18.979Z,11.93
2022-09-25T09:34:05.493Z,12.27
2022-09-25T09:37:03.533Z,13.38
2022-09-25T09:39:42.600Z,11.85
2022-09-25T09:42:32.703Z,9.35
2022-09-25T09:45:14.323Z,10.07
2022-09-25T09:48:06.694Z,10.75
2022-09-25T09:50:52.789Z,13.10
2022-09-25T09:53:36.074Z,10.48
2022-09-25T09:56:15.060Z,10.80
2022-09-25T09:59:07.379Z,9.80
2022-09-25T10:01:42.440Z,9.13
2022-09-25T10:04:30.763Z,11.55
2022-09-25T10:07:05.178Z,8.18
2022-09-25T10:09:32.635Z,8.73
2022-09-25T10:12:25.990Z,7.07
2022-09-25T10:14:57.034Z,8.83
2022-09-25T10:17:48.539Z,8.05
2022-09-25T10:20:21.085Z,8.68
2022-09-25T10:22:53.778Z,8.00
2022-09-25T10:25:39.522Z,8.38
2022-09-25T10:28:36.268Z,6.00
2022-09-25T10:31:07.843Z,4.75
2022-09-25T10:33:37.671Z,5.70
2022-09-25T10:36:12.049Z,4.72
2022-09-25T10:38:48.634Z,4.18
2022-09-25T10:41:26.736Z,4.78
2022-09-25T10:44:01.406Z,5.90
2022-09-25T10:46:51.260Z,5.82
2022-09-25T10:49:43.645Z,8.73
2022-09-25T10:52:14.994Z,5.63
2022-09-25T10:54:45.712Z,6.20
2022-09-25T10:57:35.792Z,3.72
2022-09-25T11:00:30.626Z,3.00
2022-09-25T11:03:03.249Z,3.53
2022-09-25T11:05:38.087Z,3.55
2022-09-25T11:08:09.473Z,2.90
2022-09-25T11:10:58.939Z,5.15
2022-09-25T11:13:55.661Z,3.10
2022-09-25T11:16:45.825Z,3.95
2022-09-25T11:19:19.414Z,3.25
2022-09-25T11:22:14.077Z,2.67
2022-09-25T11:25:17.906Z,3.25
2022-09-25T11:28:07.249Z,4.10
2022-09-25T11:30:50.058Z,2.53
2022-09-25T11:33:53.274Z,3.22
2022-09-25T11:36:32.138Z,2.90
2022-09-25T11:39:33.904Z,7.35
2022-09-25T11:42:19.046Z,8.00
2022-09-25T11:44:57.739Z,3.55
2022-09-25T11:47:54.380Z,5.03
2022-09-25T11:50:44.894Z,2.40
2022-09-25T11:53:46.397Z,2.70
2022-09-25T11:56:20.298Z,6.35
2022-09-25T11:59:05.341Z,2.20
2022-09-25T12:01:45.583Z,7.78
2022-09-25T12:04:46.854Z,5.40
2022-09-25T12:07:39.010Z,2.58
2022-09-25T12:10:26.723Z,4.57
2022-09-25T12:13:12.549Z,3.35
2022-09-25T12:16:03.698Z,4.90
2022-09-25T12:18:34.420Z,3.15
2022-09-25T12:21:15.512Z,3.50
2022-09-25T12:23:56.277Z,4.60
2022-09-25T12:26:34.844Z,2.53
2022-09-25T12:29:26.261Z,2.88
2022-09-25T12:32:15.187Z,3.78
2022-09-25T12:35:15.376Z,4.82
2022-09-25T12:38:02.939Z,2.60
2022-09-25T12:40:44.405Z,2.65
2022-09-25T12:43:24.563Z,2.58
2022-09-25T12:46:14.191Z,2.85
2022-09-25T12:49:02.864Z,4.45
2022-09-25T12:51:40.732Z,2.38
2022-09-25T12:54:34.913Z,3.65
2022-09-25T12:59:46.567Z,3.03
2022-09-25T13:02:49.328Z,2.45
2022-09-25T13:05:26.176Z,3.00
2022-09-25T13:08:13.354Z,2.60
2022-09-25T13:10:48.857Z,6.95
2022-09-25T13:13:26.970Z,9.05
2022-09-25T13:16:01.925Z,2.42
2022-09-25T13:18:36.395Z,11.18
2022-09-25T13:21:29.832Z,3.05
2022-09-25T13:24:00.346Z,6.93
2022-09-25T13:26:47.139Z,2.10
2022-09-25T13:29:31.045Z,2.55
2022-09-25T13:32:14.662Z,4.10
2022-09-25T13:34:43.236Z,11.43
2022-09-25T13:37:15.631Z,4.97
2022-09-25T13:40:09.199Z,2.63
2022-09-25T13:42:46.811Z,4.40
2022-09-25T13:45:26.227Z,12.70
2022-09-25T13:48:07.255Z,2.95
2022-09-25T13:50:38.954Z,3.90
2022-09-25T13:53:18.349Z,3.50
2022-09-25T13:55:57.666Z,2.65
2022-09-25T13:58:32.601Z,2.97
2022-09-25T14:01:17.819Z,2.63
2022-09-25T14:03:47.854Z,4.90
2022-09-25T14:06:25.060Z,5.13
2022-09-25T14:08:56.398Z,4.40
2022-09-25T14:11:30.051Z,2.45
2022-09-25T14:14:13.844Z,2.38
2022-09-25T14:17:01.338Z,2.70
2022-09-25T14:19:33.111Z,2.13
2022-09-25T14:22:04.575Z,2.42
2022-09-25T14:24:35.775Z,2.30
2022-09-25T14:27:24.463Z,2.45
2022-09-25T14:29:51.809Z,3.05
2022-09-25T14:32:55.624Z,4.30
2022-09-25T14:35:46.857Z,2.38
2022-09-25T14:38:55.791Z,3.28
2022-09-25T14:41:44.244Z,2.65
2022-09-25T14:44:26.062Z,2.20
2022-09-25T14:46:56.581Z,4.00
2022-09-25T14:49:30.966Z,2.38
2022-09-25T14:52:09.494Z,2.67
2022-09-25T14:54:46.889Z,3.42
2022-09-25T14:57:23.326Z,3.78
2022-09-25T14:59:56.261Z,3.75
2022-09-25T15:02:43.299Z,6.88
2022-09-25T15:05:28.064Z,2.85
2022-09-25T15:08:03.047Z,3.08
2022-09-25T15:10:37.271Z,4.85
2022-09-25T15:13:21.164Z,3.10
2022-09-25T15:16:12.275Z,2.40
2022-09-25T15:18:46.044Z,4.10
2022-09-25T15:21:31.371Z,2.38
2022-09-25T15:24:06.168Z,2.13
2022-09-25T15:26:41.041Z,3.72
2022-09-25T15:29:18.665Z,3.00
2022-09-25T15:31:51.083Z,4.72
2022-09-25T15:34:25.097Z,3.97
2022-09-25T15:41:57.148Z,3.33
2022-09-25T15:44:32.229Z,7.95
2022-09-25T15:47:31.205Z,3.05
2022-09-25T15:50:18.381Z,7.57
2022-09-25T15:52:51.066Z,4.55
2022-09-25T15:55:22.400Z,3.83
2022-09-25T15:58:04.960Z,3.35
2022-09-25T16:00:50.869Z,4.00
2022-09-25T16:03:50.298Z,3.53
2022-09-25T16:06:23.479Z,3.25
2022-09-25T16:09:08.152Z,4.35
2022-09-25T16:11:35.269Z,3.28
2022-09-25T16:14:32.213Z,4.68
2022-09-25T16:17:29.013Z,3.67
2022-09-25T16:20:10.162Z,6.38
2022-09-25T16:22:49.788Z,13.70
2022-09-25T16:25:32.471Z,20.67
2022-09-25T16:28:16.391Z,17.45
2022-09-25T16:30:50.388Z,25.52
2022-09-25T16:33:33.510Z,9.52
2022-09-25T16:36:16.981Z,3.90
2022-09-25T16:39:12.961Z,6.55
2022-09-25T16:41:48.927Z,10.43
2022-09-25T16:44:32.928Z,8.50
2022-09-25T16:47:28.766Z,9.68
2022-09-25T16:49:58.982Z,7.90
2022-09-25T16:52:29.521Z,9.68
2022-09-25T16:54:57.613Z,9.07
2022-09-25T16:57:28.379Z,9.10
2022-09-25T16:59:56.296Z,9.88
2022-09-25T17:02:37.584Z,8.18
2022-09-25T17:05:11.753Z,9.70
2022-09-25T17:07:54.126Z,10.88
2022-09-25T17:10:26.186Z,10.70
2022-09-25T17:12:56.551Z,9.13
2022-09-25T17:15:34.093Z,10.65
2022-09-25T17:18:02.308Z,10.63
2022-09-25T17:20:31.797Z,10.50
2022-09-25T17:23:06.340Z,9.50
2022-09-25T17:25:49.588Z,11.30
2022-09-25T17:28:17.475Z,11.77
2022-09-25T17:30:47.656Z,9.05
2022-09-25T17:33:17.531Z,8.13
2022-09-25T17:36:13.797Z,13.75
2022-09-25T17:38:41.995Z,42.95
2022-09-25T17:41:26.332Z,43.83
2022-09-25T17:43:53.542Z,38.65
2022-09-25T17:46:45.474Z,17.30
2022-09-25T17:49:21.825Z,22.83
2022-09-25T17:51:57.955Z,12.70
2022-09-25T17:54:29.375Z,11.85
2022-09-25T17:57:02.488Z,9.50
2022-09-25T17:59:43.933Z,11.40
2022-09-25T18:02:16.905Z,11.75
2022-09-25T18:04:46.633Z,14.13
2022-09-25T18:07:16.343Z,14.05
2022-09-25T18:09:45.949Z,12.73
2022-09-25T18:12:24.099Z,12.52
2022-09-25T18:15:11.790Z,13.68
2022-09-25T18:17:40.751Z,15.80
2022-09-25T18:20:33.200Z,14.60
2022-09-25T18:23:02.121Z,11.88
2022-09-25T18:25:29.769Z,14.88
2022-09-25T18:27:57.177Z,11.60
2022-09-25T18:30:25.992Z,10.38
2022-09-25T18:32:54.782Z,16.83
2022-09-25T18:35:23.325Z,23.10
2022-09-25T18:38:05.649Z,176.18
2022-09-25T18:43:12.326Z,20.58
2022-09-25T18:45:43.038Z,73.90
2022-09-25T18:48:11.094Z,20.83
2022-09-25T18:50:54.873Z,17.08
2022-09-25T18:53:30.109Z,14.38
2022-09-25T18:56:05.315Z,13.98
2022-09-25T18:58:34.509Z,12.50
2022-09-25T19:01:10.015Z,17.73
2022-09-25T19:03:40.777Z,55.03
2022-09-25T19:06:08.197Z,65.35
2022-09-25T19:08:37.556Z,49.25
2022-09-25T19:11:15.974Z,29.55
2022-09-25T19:13:43.727Z,16.58
2022-09-25T19:16:11.602Z,18.92
2022-09-25T19:18:38.744Z,18.02
2022-09-25T19:21:05.834Z,21.77
2022-09-25T19:23:37.414Z,18.98
2022-09-25T19:26:06.019Z,17.60
2022-09-25T19:28:35.634Z,18.85
2022-09-25T19:31:07.276Z,16.60
2022-09-25T19:33:37.305Z,18.58
2022-09-25T19:36:15.055Z,18.65
2022-09-25T19:38:43.648Z,20.90
2022-09-25T19:41:19.407Z,18.10
2022-09-25T19:43:59.307Z,19.42
2022-09-25T19:46:28.681Z,17.60
2022-09-25T19:48:55.895Z,13.60
2022-09-25T19:51:28.833Z,16.23
2022-09-25T19:53:58.889Z,21.02
2022-09-25T19:56:27.249Z,27.80
2022-09-25T19:59:05.889Z,19.33
2022-09-25T20:01:33.745Z,28.23
2022-09-25T20:04:04.442Z,32.80
2022-09-25T20:06:56.637Z,18.95
2022-09-25T20:09:42.376Z,22.35
2022-09-25T20:12:11.951Z,20.23
2022-09-25T20:14:39.059Z,22.33
2022-09-25T20:17:23.447Z,19.67
2022-09-25T20:20:03.027Z,27.10
2022-09-25T20:22:33.904Z,28.02
2022-09-25T20:25:19.474Z,23.17
2022-09-25T20:27:52.727Z,22.90
2022-09-25T20:30:21.507Z,22.58
2022-09-25T20:32:56.094Z,17.73
2022-09-25T20:35:30.603Z,21.05
2022-09-25T20:37:57.678Z,24.67
2022-09-25T20:40:24.925Z,22.60
2022-09-25T20:42:54.182Z,14.82
2022-09-25T20:45:28.272Z,22.33
2022-09-25T20:47:55.410Z,17.30
2022-09-25T20:50:37.552Z,16.15
2022-09-25T20:53:05.641Z,14.82
2022-09-25T20:55:38.258Z,14.75
2022-09-25T20:58:11.240Z,16.13
2022-09-25T21:00:39.376Z,20.48
2022-09-25T21:03:35.718Z,15.20
2022-09-25T21:06:18.932Z,20.13
2022-09-25T21:08:56.401Z,13.68
2022-09-25T21:11:31.041Z,13.52
2022-09-25T21:14:03.038Z,29.70
2022-09-25T21:16:33.513Z,12.40
2022-09-25T21:19:05.004Z,28.98
2022-09-25T21:21:42.373Z,21.25
2022-09-25T21:24:18.401Z,11.80
2022-09-25T21:26:50.933Z,14.15
2022-09-25T21:29:24.147Z,16.73
2022-09-25T21:31:55.519Z,16.63
2022-09-25T21:34:34.872Z,20.48
2022-09-25T21:37:02.963Z,27.63
2022-09-25T21:39:31.006Z,23.95
2022-09-25T21:44:34.856Z,16.38
2022-09-25T21:47:12.869Z,18.67
2022-09-25T21:49:46.756Z,18.35
2022-09-25T21:52:17.864Z,17.85
2022-09-25T21:54:45.891Z,16.00
2022-09-25T21:57:15.973Z,15.98
2022-09-25T21:59:43.017Z,13.60
2022-09-25T22:02:10.299Z,16.85
2022-09-25T22:04:40.286Z,22.20
2022-09-25T22:07:14.351Z,20.15
2022-09-25T22:09:43.447Z,14.95
2022-09-25T22:12:10.607Z,13.25
2022-09-25T22:14:37.736Z,14.50
2022-09-25T22:17:04.823Z,13.93
2022-09-25T22:19:32.087Z,16.80
2022-09-25T22:21:59.791Z,15.85
2022-09-25T22:24:27.440Z,13.45
2022-09-25T22:26:55.955Z,17.13
2022-09-25T22:29:23.731Z,14.88
2022-09-25T22:31:51.185Z,17.33
2022-09-25T22:34:28.936Z,20.20
2022-09-25T22:36:59.952Z,18.25
2022-09-25T22:39:28.865Z,17.20
2022-09-25T22:41:57.166Z,37.15
2022-09-25T22:44:24.767Z,29.15
2022-09-25T22:46:55.247Z,17.45
2022-09-25T22:49:22.629Z,16.88
2022-09-25T22:51:58.709Z,16.70
2022-09-25T22:54:25.771Z,16.88
2022-09-25T22:56:54.884Z,19.30
2022-09-25T22:59:22.866Z,15.35
2022-09-25T23:01:52.769Z,15.50
2022-09-25T23:04:24.726Z,16.65
2022-09-25T23:07:05.298Z,15.52
2022-09-25T23:09:35.432Z,17.17
2022-09-25T23:12:03.656Z,17.10
2022-09-25T23:14:32.119Z,17.27
2022-09-25T23:17:03.471Z,20.35
2022-09-25T23:19:31.705Z,18.50
2022-09-25T23:21:58.975Z,20.65
2022-09-25T23:24:26.752Z,17.65
2022-09-25T23:26:55.862Z,18.40
2022-09-25T23:29:25.608Z,17.33
2022-09-25T23:31:55.743Z,17.30
2022-09-25T23:34:32.517Z,21.80
2022-09-25T23:37:18.568Z,23.38
2022-09-25T23:39:45.528Z,25.40
2022-09-25T23:42:12.438Z,59.35
2022-09-25T23:44:51.557Z,66.07
2022-09-25T23:47:23.619Z,22.35
2022-09-25T23:49:50.750Z,17.13
2022-09-25T23:52:20.948Z,15.50
2022-09-25T23:54:49.168Z,26.83
2022-09-25T23:57:17.132Z,40.72
2022-09-25T23:59:50.046Z,20.35
